createdAt,value
2022-09-25T00:03:53.638Z,6.50
2022-09-25T00:09:07.865Z,6.50
2022-09-25T00:14:28.723Z,6.30
2022-09-25T00:19:55.213Z,6.50
2022-09-25T00:24:59.753Z,6.63
2022-09-25T00:30:12.989Z,6.60
2022-09-25T00:35:24.233Z,6.57
2022-09-25T00:40:37.459Z,7.10
2022-09-25T00:45:46.355Z,7.10
2022-09-25T00:51:02.930Z,7.40
2022-09-25T00:56:20.182Z,8.03
2022-09-25T01:01:41.263Z,8.40
2022-09-25T01:06:53.553Z,8.17
2022-09-25T01:12:16.583Z,8.57
2022-09-25T01:17:41.456Z,8.03
2022-09-25T01:23:08.327Z,7.77
2022-09-25T01:28:38.615Z,8.10
2022-09-25T01:33:50.247Z,7.93
2022-09-25T01:39:14.359Z,8.33
2022-09-25T01:44:33.279Z,8.57
2022-09-25T01:49:59.788Z,8.63
2022-09-25T01:55:14.690Z,9.33
2022-09-25T02:00:52.141Z,8.70
2022-09-25T02:06:07.902Z,8.57
2022-09-25T02:11:20.470Z,8.87
2022-09-25T02:16:35.615Z,9.10
2022-09-25T02:27:16.719Z,9.60
2022-09-25T02:32:27.099Z,8.90
2022-09-25T02:37:36.003Z,9.17
2022-09-25T02:42:52.168Z,9.23
2022-09-25T02:48:21.348Z,9.87
2022-09-25T02:53:40.078Z,10.00
2022-09-25T02:58:51.105Z,9.33
2022-09-25T03:04:03.132Z,8.67
2022-09-25T03:09:19.036Z,8.80
2022-09-25T03:19:49.942Z,9.03
2022-09-25T03:25:17.969Z,9.53
2022-09-25T03:30:25.331Z,9.43
2022-09-25T03:35:35.559Z,8.97
2022-09-25T03:41:01.812Z,9.63
2022-09-25T03:46:11.570Z,9.57
2022-09-25T03:51:21.730Z,9.83
2022-09-25T03:56:43.751Z,9.00
2022-09-25T04:02:02.793Z,9.17
2022-09-25T04:07:11.814Z,10.10
2022-09-25T04:12:22.236Z,10.30
2022-09-25T04:17:34.021Z,11.00
2022-09-25T04:22:49.188Z,10.03
2022-09-25T04:27:59.671Z,10.50
2022-09-25T04:33:21.424Z,10.40
2022-09-25T04:38:36.907Z,10.00
2022-09-25T04:49:21.894Z,10.83
2022-09-25T04:54:32.056Z,10.77
2022-09-25T04:59:41.096Z,10.10
2022-09-25T05:04:47.100Z,10.10
2022-09-25T05:09:52.395Z,11.27
2022-09-25T05:15:02.813Z,10.07
2022-09-25T05:20:13.297Z,10.57
2022-09-25T05:25:35.738Z,11.83
2022-09-25T05:31:15.657Z,10.33
2022-09-25T05:36:23.409Z,10.83
2022-09-25T05:41:37.926Z,10.83
2022-09-25T05:46:49.270Z,10.33
2022-09-25T05:51:57.986Z,10.63
2022-09-25T05:57:05.981Z,10.87
2022-09-25T06:02:15.019Z,10.87
2022-09-25T06:07:30.441Z,10.90
2022-09-25T06:13:06.357Z,11.90
2022-09-25T06:24:14.927Z,11.17
2022-09-25T06:34:48.133Z,12.30
2022-09-25T06:39:53.124Z,11.37
2022-09-25T06:45:10.236Z,10.43
2022-09-25T06:50:21.209Z,12.33
2022-09-25T06:55:48.502Z,12.10
2022-09-25T07:01:13.069Z,11.43
2022-09-25T07:06:39.566Z,12.47
2022-09-25T07:11:49.911Z,12.43
2022-09-25T07:17:05.618Z,14.50
2022-09-25T07:22:19.005Z,13.27
2022-09-25T07:27:27.889Z,12.30
2022-09-25T07:33:00.187Z,12.55
2022-09-25T07:38:14.755Z,12.60
2022-09-25T07:43:23.273Z,12.85
2022-09-25T07:48:38.446Z,12.45
2022-09-25T07:53:47.711Z,11.80
2022-09-25T07:59:00.158Z,12.63
2022-09-25T08:04:27.474Z,11.98
2022-09-25T08:09:39.725Z,11.75
2022-09-25T08:14:52.748Z,12.00
2022-09-25T08:20:10.319Z,12.15
2022-09-25T08:25:19.064Z,12.00
2022-09-25T08:31:08.601Z,11.55
2022-09-25T08:36:49.148Z,12.45
2022-09-25T08:42:27.309Z,11.68
2022-09-25T08:47:56.599Z,11.23
2022-09-25T08:58:35.541Z,10.63
2022-09-25T09:03:54.529Z,11.25
2022-09-25T09:09:18.428Z,10.50
2022-09-25T09:14:41.806Z,11.50
2022-09-25T09:19:56.239Z,9.48
2022-09-25T09:25:10.434Z,10.25
2022-09-25T09:30:28.178Z,9.75
2022-09-25T09:35:42.667Z,8.95
2022-09-25T09:41:05.971Z,9.77
2022-09-25T09:46:37.078Z,9.02
2022-09-25T09:51:49.016Z,9.38
2022-09-25T09:57:04.501Z,9.68
2022-09-25T10:02:42.201Z,10.55
2022-09-25T10:08:03.558Z,9.90
2022-09-25T10:13:19.570Z,9.75
2022-09-25T10:18:36.395Z,10.38
2022-09-25T10:24:11.556Z,10.15
2022-09-25T10:29:44.369Z,10.13
2022-09-25T10:35:31.084Z,10.73
2022-09-25T10:40:40.062Z,10.07
2022-09-25T10:45:46.443Z,10.48
2022-09-25T10:51:24.949Z,11.55
2022-09-25T10:56:40.661Z,9.80
2022-09-25T11:01:47.522Z,10.70
2022-09-25T11:07:07.705Z,10.70
2022-09-25T11:12:19.100Z,10.38
2022-09-25T11:17:34.040Z,10.15
2022-09-25T11:22:54.452Z,11.02
2022-09-25T11:28:12.535Z,10.38
2022-09-25T11:33:32.524Z,10.13
2022-09-25T11:39:11.672Z,10.40
2022-09-25T11:44:35.062Z,9.25
2022-09-25T11:49:41.220Z,8.30
2022-09-25T11:55:06.854Z,8.57
2022-09-25T12:00:23.326Z,8.10
2022-09-25T12:05:55.504Z,8.15
2022-09-25T12:11:22.689Z,7.28
2022-09-25T12:16:41.792Z,8.65
2022-09-25T12:21:54.086Z,7.95
2022-09-25T12:27:34.495Z,7.15
2022-09-25T12:33:18.852Z,7.55
2022-09-25T12:38:56.044Z,6.05
2022-09-25T12:44:08.077Z,6.45
2022-09-25T12:49:18.091Z,6.60
2022-09-25T12:54:33.392Z,6.78
2022-09-25T12:59:48.421Z,5.88
2022-09-25T13:05:08.194Z,5.07
2022-09-25T13:10:35.626Z,5.88
2022-09-25T13:21:32.027Z,6.22
2022-09-25T13:26:49.298Z,6.13
2022-09-25T13:32:07.044Z,6.05
2022-09-25T13:37:18.631Z,5.88
2022-09-25T13:42:44.096Z,6.60
2022-09-25T13:48:13.049Z,5.45
2022-09-25T13:53:52.552Z,5.82
2022-09-25T13:59:28.154Z,5.15
2022-09-25T14:04:40.996Z,4.60
2022-09-25T14:09:55.236Z,5.80
2022-09-25T14:15:18.737Z,5.72
2022-09-25T14:20:44.041Z,5.18
2022-09-25T14:26:30.037Z,4.75
2022-09-25T14:31:55.213Z,4.25
2022-09-25T14:37:29.924Z,3.97
2022-09-25T14:43:02.514Z,5.05
2022-09-25T14:48:18.847Z,4.30
2022-09-25T14:53:40.591Z,4.35
2022-09-25T14:58:52.834Z,4.00
2022-09-25T15:04:07.698Z,4.30
2022-09-25T15:09:32.796Z,3.53
2022-09-25T15:14:39.390Z,3.88
2022-09-25T15:19:49.834Z,3.67
2022-09-25T15:25:05.765Z,3.25
2022-09-25T15:30:24.296Z,3.97
2022-09-25T15:35:30.638Z,3.40
2022-09-25T15:40:38.394Z,3.42
2022-09-25T15:45:54.641Z,2.95
2022-09-25T15:51:08.942Z,3.78
2022-09-25T15:56:31.264Z,3.30
2022-09-25T16:02:02.618Z,4.55
2022-09-25T16:07:35.759Z,4.80
2022-09-25T16:12:51.623Z,4.93
2022-09-25T16:18:07.422Z,4.20
2022-09-25T16:23:33.012Z,4.07
2022-09-25T16:28:41.847Z,4.60
2022-09-25T16:34:02.668Z,4.18
2022-09-25T16:39:27.086Z,3.78
2022-09-25T16:45:07.996Z,4.03
2022-09-25T16:50:17.482Z,4.60
2022-09-25T16:55:24.587Z,4.53
2022-09-25T17:00:33.261Z,5.00
2022-09-25T17:05:43.349Z,5.18
2022-09-25T17:10:52.843Z,5.68
2022-09-25T17:16:06.787Z,5.18
2022-09-25T17:21:17.470Z,5.75
2022-09-25T17:26:29.682Z,5.68
2022-09-25T17:31:40.591Z,5.32
2022-09-25T17:36:55.310Z,4.90
2022-09-25T17:42:00.595Z,5.55
2022-09-25T17:47:16.408Z,5.63
2022-09-25T17:52:24.604Z,5.72
2022-09-25T17:57:32.741Z,5.88
2022-09-25T18:03:01.584Z,5.82
2022-09-25T18:08:06.554Z,4.93
2022-09-25T18:13:21.128Z,6.00
2022-09-25T18:18:48.815Z,5.90
2022-09-25T18:24:05.399Z,5.70
2022-09-25T18:29:27.950Z,5.75
2022-09-25T18:34:38.772Z,5.57
2022-09-25T18:39:58.207Z,5.20
2022-09-25T18:45:05.438Z,5.95
2022-09-25T18:50:20.953Z,5.57
2022-09-25T18:55:38.146Z,5.97
2022-09-25T19:00:46.415Z,6.60
2022-09-25T19:06:14.898Z,6.32
2022-09-25T19:11:23.910Z,6.53
2022-09-25T19:16:37.858Z,6.80
2022-09-25T19:21:53.921Z,7.35
2022-09-25T19:27:06.911Z,6.60
2022-09-25T19:32:14.319Z,7.35
2022-09-25T19:37:32.001Z,7.25
2022-09-25T19:42:37.730Z,7.22
2022-09-25T19:47:50.759Z,7.38
2022-09-25T19:52:58.188Z,7.20
2022-09-25T19:58:02.499Z,7.55
2022-09-25T20:03:17.853Z,7.22
2022-09-25T20:08:31.239Z,7.57
2022-09-25T20:13:36.881Z,6.47
2022-09-25T20:18:47.666Z,7.43
2022-09-25T20:24:00.070Z,6.43
2022-09-25T20:29:06.435Z,7.15
2022-09-25T20:34:23.418Z,6.30
2022-09-25T20:39:30.558Z,7.20
2022-09-25T20:44:36.325Z,6.55
2022-09-25T20:49:51.720Z,6.45
2022-09-25T20:55:08.896Z,6.90
2022-09-25T21:00:19.284Z,6.55
2022-09-25T21:05:45.267Z,6.18
2022-09-25T21:11:17.212Z,6.80
2022-09-25T21:16:43.112Z,6.85
2022-09-25T21:22:03.160Z,6.90
2022-09-25T21:27:13.446Z,6.95
2022-09-25T21:32:33.601Z,7.07
2022-09-25T21:37:56.158Z,7.53
2022-09-25T21:43:13.651Z,7.20
2022-09-25T21:48:22.215Z,7.03
2022-09-25T21:53:32.045Z,7.80
2022-09-25T21:58:55.188Z,7.90
2022-09-25T22:04:16.492Z,7.75
2022-09-25T22:09:26.795Z,7.68
2022-09-25T22:14:33.830Z,8.65
2022-09-25T22:19:40.015Z,8.65
2022-09-25T22:24:47.168Z,8.25
2022-09-25T22:30:06.500Z,9.70
2022-09-25T22:35:26.145Z,9.25
2022-09-25T22:40:37.549Z,9.55
2022-09-25T22:45:52.032Z,9.02
2022-09-25T22:50:57.478Z,10.98
2022-09-25T22:56:15.080Z,10.48
2022-09-25T23:01:31.470Z,9.45
2022-09-25T23:06:47.108Z,10.40
2022-09-25T23:11:55.672Z,9.85
2022-09-25T23:17:08.356Z,11.20
2022-09-25T23:22:22.857Z,10.00
2022-09-25T23:27:27.695Z,9.60
2022-09-25T23:32:33.813Z,9.82
2022-09-25T23:37:41.299Z,8.32
2022-09-25T23:42:50.536Z,8.95
2022-09-25T23:48:06.444Z,8.27
2022-09-25T23:53:24.881Z,7.82
2022-09-25T23:58:47.797Z,7.97
